Terminal Aerodrome Forecast
Issued by NWS

Home | Current Version | Previous Version | Text Only | Print | Product List | Glossary On
Versions: 1 2 3 4 5 6 7 8 9 10 11 12 13 14 15 16 17 18 19 20 21 22 23 24 25 26 27 28 29 30 31 32 33 34 35 36 37 38 39 40 41 42
841
FTUS41 KRNK 261921 AAC
TAFBCB
TAF AMD
KBCB 261921Z 2619/2718 11009KT P6SM VCSH BKN029 OVC050
      TEMPO 2621/2622 15012G25KT 2SM TSRA SCT012 OVC025CB
     FM270000 18003KT 5SM SHRA OVC015
     FM270300 27004KT 3SM -SHRA BR OVC009
     FM270900 29005KT P6SM SCT015 BKN100
     FM271000 29002KT 1/4SM FG OVC001
     FM271300 00000KT P6SM SCT007 OVC015=

USA.gov is the U.S. government's official web portal to all federal, state and local government web resources and services.